KCRO2: Canadian River nr Konowa, OK

Data processed at Mon Dec 17 2018 23:32


All information presented herein is the property of the government of the United States of America and may be revised or deleted at any time without prior notice.
Dissemination of this information without the expressed written consent of the Public Affairs Office, Tulsa District U.S. Army Corps of Engineers is strictly prohibited.
These data are gathered electronically and, as presented, have not undergone any form of quality control. These data are not guaranteed to be valid or correct.
Go to home page.
Go to station list.
Go to home page.

Downstream station:


Previous Day
Next Day
Current Day
    
SHEF ID:       KCRO2     Canadian River nr Konowa, OK
STATION TYPE:  

               PRECIP     STAGE  RIV-FLOW   VOLTAGE  BAT-LOAD
                   in        ft       cfs      volt      volt
              Ccp-Rev   Ccp-Rev   Ccp-Rev   Ccp-Rev   Ccp-Rev
(US/Central)
12/17 00:00      0.00      9.91      1687     12.41     12.17
12/17 01:00      0.00      9.89      1644     12.41     12.17
12/17 02:00      0.00      9.88      1623     12.41     12.17
12/17 03:00      0.00      9.87      1602     12.41     12.17
12/17 04:00      0.00      9.86      1581     12.41     12.09
12/17 05:00      0.00      9.84      1540     12.41     12.09
12/17 06:00      0.00      9.82      1499     12.41     12.09
12/17 07:00      0.00      9.82      1499     12.33     12.09
12/17 08:00      0.00      9.82      1499     12.41     12.09
12/17 09:00      0.00      9.80      1459     12.41     12.17
12/17 10:00      0.00      9.78      1420     12.81     12.41
12/17 11:00      0.00      9.78      1420     13.05     12.73
12/17 12:00      0.00      9.77      1400     12.97     12.89
12/17 13:00      0.00      9.77      1400     13.05     12.81
12/17 14:00      0.00      9.77      1400     12.97     12.73
12/17 15:00      0.00      9.76      1381     12.81     12.65
12/17 16:00      0.00      9.76      1381     12.73     12.65
12/17 17:00      0.00      9.75      1362     12.65     12.57
12/17 18:00      0.00      9.76      1381     12.65     12.49
12/17 19:00      0.00      9.75      1362     12.57     12.41
12/17 20:00      0.00      9.75      1362     12.57     12.41
12/17 21:00      0.00      9.75      1362     12.57     12.33
12/17 22:00      0.00      9.74      1343     12.49     12.33
12/17 23:00      ----      ----      ----      ----      ----